Time;durP1;ratioP1;P1;durP2;ratioP2;P2;SDS_P1;SDS_P2;PMS_P1;PMS_P2;Temp;Humidity;BMP_temperature;BMP_pressure;BME280_temperature;BME280_humidity;BME280_pressure;Samples;Min_cycle;Max_cycle;Signal;HPM_P1;HPM_P2
2021/10/09 00:00:00;;;;;;;25.17;9.75;;;;;;;;;;5071284;28;20132;-64
2021/10/09 00:02:28;;;;;;;23.98;9.70;;;;;;;;;;5074915;28;20139;-64
2021/10/09 00:04:56;;;;;;;24.10;8.98;;;;;;;;;;5071162;28;20103;-64
2021/10/09 00:07:26;;;;;;;21.92;8.82;;;;;;;;;;5084433;28;20131;-63
2021/10/09 00:09:59;;;;;;;20.95;9.43;;;;;;;;;;5090431;28;20101;-63
2021/10/09 00:12:27;;;;;;;19.85;9.18;;;;;;;;;;5080698;28;20041;-64
2021/10/09 00:14:55;;;;;;;24.50;9.05;;;;;;;;;;5070659;28;20082;-65
2021/10/09 00:17:25;;;;;;;18.25;7.90;;;;;;;;;;5061729;28;20062;-63
2021/10/09 00:19:53;;;;;;;22.38;8.07;;;;;;;;;;5052212;28;20080;-64
2021/10/09 00:22:22;;;;;;;20.35;8.45;;;;;;;;;;5055617;28;20052;-63
2021/10/09 00:24:51;;;;;;;24.13;9.60;;;;;;;;;;5057597;28;20572;-64
2021/10/09 00:27:20;;;;;;;21.15;9.07;;;;;;;;;;5057534;28;20157;-64
2021/10/09 00:29:48;;;;;;;19.88;8.60;;;;;;;;;;5051437;28;20453;-64
2021/10/09 00:32:16;;;;;;;21.90;8.88;;;;;;;;;;5077026;28;20139;-63
2021/10/09 00:34:44;;;;;;;19.35;8.13;;;;;;;;;;5075725;28;20561;-64
2021/10/09 00:37:13;;;;;;;21.60;8.77;;;;;;;;;;5061413;28;20080;-63
2021/10/09 00:39:41;;;;;;;19.67;8.65;;;;;;;;;;5071299;28;20076;-63
2021/10/09 00:42:11;;;;;;;20.35;8.50;;;;;;;;;;5072104;28;20055;-63
2021/10/09 00:44:40;;;;;;;20.98;8.20;;;;;;;;;;5072984;28;20058;-65
2021/10/09 00:47:08;;;;;;;20.17;8.20;;;;;;;;;;5070337;28;20058;-63
2021/10/09 00:49:36;;;;;;;19.27;8.07;;;;;;;;;;5076693;28;20047;-64
2021/10/09 00:52:05;;;;;;;18.25;8.63;;;;;;;;;;5070740;28;20100;-64
2021/10/09 00:54:37;;;;;;;21.80;8.90;;;;;;;;;;5074610;28;20131;-64
2021/10/09 00:57:06;;;;;;;16.95;8.45;;;;;;;;;;5086327;28;20040;-64
2021/10/09 00:59:39;;;;;;;21.77;9.38;;;;;;;;;;5081045;28;20139;-63
2021/10/09 01:02:07;;;;;;;18.17;9.18;;;;;;;;;;5081490;28;20123;-64
2021/10/09 01:04:36;;;;;;;20.85;9.40;;;;;;;;;;5077951;28;20059;-63
2021/10/09 01:07:05;;;;;;;22.13;9.60;;;;;;;;;;5080604;28;20149;-64
2021/10/09 01:09:33;;;;;;;23.20;8.95;;;;;;;;;;5067320;28;20503;-64
2021/10/09 01:12:02;;;;;;;18.98;8.30;;;;;;;;;;5071040;28;20048;-64
2021/10/09 01:14:30;;;;;;;18.30;8.57;;;;;;;;;;5077519;28;20098;-64
2021/10/09 01:17:00;;;;;;;21.60;10.45;;;;;;;;;;5070328;28;20144;-64
2021/10/09 01:19:28;;;;;;;24.90;10.32;;;;;;;;;;5077047;28;20067;-64
2021/10/09 01:21:58;;;;;;;21.40;9.65;;;;;;;;;;5070598;28;20053;-65
2021/10/09 01:24:26;;;;;;;25.02;10.65;;;;;;;;;;5078090;28;20082;-64
2021/10/09 01:26:54;;;;;;;21.58;10.32;;;;;;;;;;5071922;28;20134;-64
2021/10/09 01:29:22;;;;;;;23.10;9.80;;;;;;;;;;5078110;28;20270;-64
2021/10/09 01:31:51;;;;;;;21.20;10.40;;;;;;;;;;5070098;28;20340;-64
2021/10/09 01:34:21;;;;;;;22.55;11.15;;;;;;;;;;5068944;28;20123;-64
2021/10/09 01:36:49;;;;;;;27.95;11.30;;;;;;;;;;5085331;28;20474;-63
2021/10/09 01:39:19;;;;;;;33.50;11.68;;;;;;;;;;5080653;28;20051;-64
2021/10/09 01:41:48;;;;;;;28.42;11.45;;;;;;;;;;5070187;28;20044;-63
2021/10/09 01:44:17;;;;;;;26.67;9.93;;;;;;;;;;5062164;28;20101;-64
2021/10/09 01:46:45;;;;;;;24.90;10.38;;;;;;;;;;5069878;28;20127;-65
2021/10/09 01:49:14;;;;;;;30.50;10.77;;;;;;;;;;5049387;28;20083;-65
2021/10/09 01:51:42;;;;;;;25.30;11.02;;;;;;;;;;5067684;28;20131;-65
2021/10/09 01:54:10;;;;;;;26.17;11.65;;;;;;;;;;5069116;28;20131;-64
2021/10/09 01:56:40;;;;;;;25.98;10.77;;;;;;;;;;5070356;28;20044;-64
2021/10/09 01:59:08;;;;;;;24.67;11.35;;;;;;;;;;5074218;28;20143;-64
2021/10/09 02:01:36;;;;;;;20.65;9.82;;;;;;;;;;5063681;28;20076;-64
2021/10/09 02:04:05;;;;;;;25.08;10.13;;;;;;;;;;5069222;28;20265;-64
2021/10/09 02:06:33;;;;;;;22.90;10.77;;;;;;;;;;5084948;28;20138;-64
2021/10/09 02:09:02;;;;;;;23.83;10.77;;;;;;;;;;5076043;28;20128;-65
2021/10/09 02:11:37;;;;;;;28.08;11.23;;;;;;;;;;5076969;28;20132;-65
2021/10/09 02:14:16;;;;;;;27.63;11.52;;;;;;;;;;5089417;28;20130;-65
2021/10/09 02:17:23;;;;;;;26.75;10.73;;;;;;;;;;5064205;28;20049;-64
2021/10/09 02:25:37;;;;;;;29.92;11.77;;;;;;;;;;5065163;28;20139;-64
2021/10/09 02:28:06;;;;;;;25.85;10.57;;;;;;;;;;5078216;28;20131;-66
2021/10/09 02:30:35;;;;;;;28.35;11.57;;;;;;;;;;5075387;28;20579;-64
2021/10/09 02:33:04;;;;;;;26.65;11.60;;;;;;;;;;5070116;28;20132;-65
2021/10/09 02:35:33;;;;;;;25.38;11.25;;;;;;;;;;5070095;28;20045;-64
2021/10/09 02:38:01;;;;;;;25.45;10.20;;;;;;;;;;5088289;28;20132;-64
2021/10/09 02:40:30;;;;;;;28.48;11.88;;;;;;;;;;5081195;28;20053;-64
2021/10/09 02:42:58;;;;;;;26.65;10.10;;;;;;;;;;5068804;28;20588;-64
2021/10/09 02:45:27;;;;;;;23.77;11.02;;;;;;;;;;5076927;28;20072;-64
2021/10/09 02:47:58;;;;;;;23.95;10.77;;;;;;;;;;5070262;28;20584;-64
2021/10/09 02:50:28;;;;;;;27.05;11.95;;;;;;;;;;5061944;28;20123;-64
2021/10/09 02:52:56;;;;;;;26.67;12.25;;;;;;;;;;5079995;28;20438;-64
2021/10/09 02:55:25;;;;;;;26.00;11.27;;;;;;;;;;5074667;28;20083;-64
2021/10/09 02:57:53;;;;;;;24.25;11.18;;;;;;;;;;5091573;28;20044;-64
2021/10/09 03:00:22;;;;;;;29.17;11.68;;;;;;;;;;5080355;28;20411;-64
2021/10/09 03:02:50;;;;;;;25.23;10.63;;;;;;;;;;5080957;28;20048;-64
2021/10/09 03:05:20;;;;;;;26.60;12.30;;;;;;;;;;5084878;28;20051;-65
2021/10/09 03:07:49;;;;;;;30.77;11.43;;;;;;;;;;5075289;28;20129;-65
2021/10/09 03:10:17;;;;;;;26.10;11.38;;;;;;;;;;5091054;28;20053;-64
2021/10/09 03:12:45;;;;;;;23.88;11.18;;;;;;;;;;5074146;28;20139;-65
2021/10/09 03:15:14;;;;;;;27.20;11.63;;;;;;;;;;5080076;28;20425;-65
2021/10/09 03:17:42;;;;;;;26.75;11.95;;;;;;;;;;5078434;28;20083;-64
2021/10/09 03:20:11;;;;;;;23.90;11.07;;;;;;;;;;5073215;28;20063;-64
2021/10/09 03:22:44;;;;;;;31.23;10.98;;;;;;;;;;5079979;28;20079;-64
2021/10/09 03:25:12;;;;;;;24.70;10.70;;;;;;;;;;5061124;28;20139;-64
2021/10/09 03:27:50;;;;;;;22.10;10.50;;;;;;;;;;3424348;28;10022106;-64
2021/10/09 03:30:19;;;;;;;26.33;11.15;;;;;;;;;;2272528;28;10002133;-64
2021/10/09 03:32:47;;;;;;;25.50;11.35;;;;;;;;;;5073265;28;20110;-64
2021/10/09 03:35:15;;;;;;;24.52;10.95;;;;;;;;;;5082588;28;20171;-64
2021/10/09 03:37:45;;;;;;;26.45;11.40;;;;;;;;;;5072149;28;20083;-66
2021/10/09 03:40:15;;;;;;;24.60;10.25;;;;;;;;;;5083810;28;20052;-65
2021/10/09 03:42:47;;;;;;;29.35;11.68;;;;;;;;;;5076656;28;20075;-64
2021/10/09 03:45:20;;;;;;;27.20;12.15;;;;;;;;;;5072806;28;20135;-64
2021/10/09 03:48:03;;;;;;;26.17;10.77;;;;;;;;;;5071941;28;20087;-64
2021/10/09 03:53:20;;;;;;;28.50;11.18;;;;;;;;;;5079121;28;20044;-64
2021/10/09 03:55:48;;;;;;;24.05;9.82;;;;;;;;;;5074657;28;20175;-65
2021/10/09 03:58:16;;;;;;;28.30;11.18;;;;;;;;;;5081113;28;20124;-65
2021/10/09 04:00:45;;;;;;;27.52;10.93;;;;;;;;;;5077024;28;20052;-64
2021/10/09 04:03:13;;;;;;;26.33;11.02;;;;;;;;;;5079300;28;20055;-64
2021/10/09 04:05:41;;;;;;;27.02;11.13;;;;;;;;;;5081438;28;20083;-64
2021/10/09 04:08:09;;;;;;;28.17;11.20;;;;;;;;;;5078393;28;20076;-64
2021/10/09 04:10:40;;;;;;;27.30;11.43;;;;;;;;;;5071222;28;20594;-64
2021/10/09 04:13:08;;;;;;;23.63;11.38;;;;;;;;;;5072076;28;20076;-65
2021/10/09 04:15:36;;;;;;;24.42;11.80;;;;;;;;;;5067383;28;20132;-66
2021/10/09 04:18:05;;;;;;;27.65;11.02;;;;;;;;;;5084865;28;20076;-64
2021/10/09 04:20:34;;;;;;;24.02;11.70;;;;;;;;;;5084634;28;20496;-65
2021/10/09 04:23:02;;;;;;;29.63;11.73;;;;;;;;;;5080492;28;20119;-65
2021/10/09 04:25:30;;;;;;;31.38;11.27;;;;;;;;;;5076911;28;20108;-64
2021/10/09 04:28:00;;;;;;;29.05;11.95;;;;;;;;;;5087780;28;20411;-65
2021/10/09 04:30:28;;;;;;;23.83;10.55;;;;;;;;;;5087056;28;20372;-64
2021/10/09 04:32:57;;;;;;;26.10;11.63;;;;;;;;;;5068782;28;20057;-66
2021/10/09 04:35:25;;;;;;;27.42;11.77;;;;;;;;;;5069815;28;20501;-64
2021/10/09 04:37:54;;;;;;;29.85;12.60;;;;;;;;;;5073544;28;20036;-65
2021/10/09 04:40:22;;;;;;;28.90;12.60;;;;;;;;;;5077845;28;20540;-64
2021/10/09 04:42:50;;;;;;;30.92;11.73;;;;;;;;;;5067737;28;20056;-63
2021/10/09 04:45:20;;;;;;;33.25;12.93;;;;;;;;;;5072412;28;20052;-65
2021/10/09 04:47:48;;;;;;;35.30;13.55;;;;;;;;;;5088611;28;20076;-64
2021/10/09 04:50:17;;;;;;;28.17;12.63;;;;;;;;;;5066287;28;20059;-64
2021/10/09 04:52:45;;;;;;;33.58;12.60;;;;;;;;;;5066562;28;20143;-64
2021/10/09 04:55:14;;;;;;;32.30;12.93;;;;;;;;;;5052436;28;20053;-64
2021/10/09 04:57:42;;;;;;;35.00;13.52;;;;;;;;;;5066519;28;20119;-64
2021/10/09 05:00:11;;;;;;;32.58;13.57;;;;;;;;;;5052444;28;20069;-64
2021/10/09 05:02:41;;;;;;;36.88;13.82;;;;;;;;;;5047423;28;20076;-66
2021/10/09 05:05:10;;;;;;;32.85;13.60;;;;;;;;;;5051665;28;20044;-65
2021/10/09 05:07:38;;;;;;;33.83;13.38;;;;;;;;;;5058215;28;20185;-65
2021/10/09 05:10:08;;;;;;;37.42;14.10;;;;;;;;;;5059808;28;20056;-69
2021/10/09 05:12:56;;;;;;;39.83;15.68;;;;;;;;;;5051304;28;20053;-64
2021/10/09 05:15:24;;;;;;;36.75;14.85;;;;;;;;;;5064342;28;20452;-64
2021/10/09 05:17:54;;;;;;;38.10;14.45;;;;;;;;;;5073185;28;20186;-64
2021/10/09 05:20:22;;;;;;;39.88;16.02;;;;;;;;;;5075639;28;20102;-64
2021/10/09 05:22:51;;;;;;;36.72;16.02;;;;;;;;;;5061572;28;20157;-64
2021/10/09 05:25:19;;;;;;;42.33;16.73;;;;;;;;;;5063853;28;20102;-64
2021/10/09 05:27:54;;;;;;;41.10;15.73;;;;;;;;;;5077721;28;20048;-64
2021/10/09 05:30:22;;;;;;;33.70;14.65;;;;;;;;;;5083350;28;20504;-65
2021/10/09 05:32:59;;;;;;;36.03;14.75;;;;;;;;;;5086385;28;20492;-65
2021/10/09 05:35:29;;;;;;;42.05;14.90;;;;;;;;;;5087789;28;20083;-65
2021/10/09 05:37:57;;;;;;;36.25;15.18;;;;;;;;;;5071581;28;20135;-65
2021/10/09 05:40:26;;;;;;;35.05;15.27;;;;;;;;;;5065096;28;20049;-64
2021/10/09 05:42:54;;;;;;;36.92;15.65;;;;;;;;;;5046325;28;20077;-65
2021/10/09 05:45:22;;;;;;;40.67;16.02;;;;;;;;;;5062292;28;20534;-64
2021/10/09 05:47:51;;;;;;;41.45;16.45;;;;;;;;;;5059623;28;20148;-64
2021/10/09 05:50:24;;;;;;;43.17;16.17;;;;;;;;;;5053427;28;20048;-65
2021/10/09 05:52:59;;;;;;;37.70;16.95;;;;;;;;;;5046600;28;20470;-65
2021/10/09 05:55:30;;;;;;;44.67;16.20;;;;;;;;;;5076761;28;20127;-66
2021/10/09 05:58:06;;;;;;;39.90;15.52;;;;;;;;;;5075836;28;20558;-64
2021/10/09 06:26:01;;;;;;;44.15;17.73;;;;;;;;;;5073904;28;20080;-64
2021/10/09 06:48:24;;;;;;;49.35;19.80;;;;;;;;;;5061124;28;20044;-66
2021/10/09 06:59:30;;;;;;;50.22;16.88;;;;;;;;;;5067160;28;20155;-65
2021/10/09 07:01:59;;;;;;;44.75;17.85;;;;;;;;;;5068908;28;20471;-64
2021/10/09 07:04:27;;;;;;;54.45;19.60;;;;;;;;;;5065653;28;20048;-65
2021/10/09 07:06:57;;;;;;;49.67;18.02;;;;;;;;;;5063143;28;20292;-64
2021/10/09 07:09:25;;;;;;;50.08;19.27;;;;;;;;;;5069605;28;20150;-64
2021/10/09 07:11:53;;;;;;;48.97;18.70;;;;;;;;;;5070716;28;20097;-64
2021/10/09 07:14:22;;;;;;;44.17;17.95;;;;;;;;;;5086925;28;20056;-64
2021/10/09 07:16:51;;;;;;;50.55;18.17;;;;;;;;;;5076508;28;20125;-65
2021/10/09 07:19:20;;;;;;;48.20;18.48;;;;;;;;;;5081803;28;20147;-66
2021/10/09 07:21:48;;;;;;;47.17;18.67;;;;;;;;;;5070574;28;20174;-64
2021/10/09 07:24:36;;;;;;;49.92;19.33;;;;;;;;;;5056809;28;20481;-65
2021/10/09 07:27:05;;;;;;;56.17;18.92;;;;;;;;;;5051889;28;20500;-64
2021/10/09 07:29:33;;;;;;;47.63;18.55;;;;;;;;;;5063876;28;20165;-64
2021/10/09 07:32:03;;;;;;;45.28;18.50;;;;;;;;;;5055339;28;20045;-64
2021/10/09 07:34:31;;;;;;;43.05;18.55;;;;;;;;;;5066791;28;20056;-64
2021/10/09 07:36:59;;;;;;;48.03;18.85;;;;;;;;;;5060760;28;20128;-64
2021/10/09 07:39:28;;;;;;;46.33;17.42;;;;;;;;;;5065088;28;20459;-64
2021/10/09 07:41:56;;;;;;;45.50;18.88;;;;;;;;;;5058320;28;20563;-64
2021/10/09 07:44:24;;;;;;;49.58;17.70;;;;;;;;;;5064250;28;20468;-64
2021/10/09 07:46:53;;;;;;;43.35;16.67;;;;;;;;;;5067670;28;20067;-64
2021/10/09 07:49:22;;;;;;;46.83;18.05;;;;;;;;;;5065097;28;20094;-64
2021/10/09 07:51:51;;;;;;;49.63;18.98;;;;;;;;;;5063800;28;20058;-65
2021/10/09 07:54:19;;;;;;;46.42;18.33;;;;;;;;;;5065629;28;20182;-64
2021/10/09 07:56:47;;;;;;;51.10;18.65;;;;;;;;;;5062955;28;20051;-64
2021/10/09 07:59:15;;;;;;;49.72;19.75;;;;;;;;;;5070272;28;20490;-65
2021/10/09 08:01:44;;;;;;;51.78;18.52;;;;;;;;;;5070732;28;20048;-63
2021/10/09 08:04:15;;;;;;;52.40;18.17;;;;;;;;;;5081033;28;20047;-63
2021/10/09 08:06:45;;;;;;;47.30;17.83;;;;;;;;;;5076255;28;20048;-63
2021/10/09 08:09:13;;;;;;;45.97;18.48;;;;;;;;;;5075634;28;20091;-66
2021/10/09 08:11:42;;;;;;;41.38;17.45;;;;;;;;;;5075752;28;20063;-63
2021/10/09 08:14:10;;;;;;;44.90;18.27;;;;;;;;;;5060971;28;20044;-64
2021/10/09 08:16:43;;;;;;;49.70;17.95;;;;;;;;;;5070206;28;20048;-63
2021/10/09 08:19:11;;;;;;;46.20;18.02;;;;;;;;;;5066859;28;20481;-65
2021/10/09 08:21:41;;;;;;;42.67;18.38;;;;;;;;;;5071321;28;20049;-64
2021/10/09 08:24:18;;;;;;;42.35;16.65;;;;;;;;;;5064035;28;20544;-63
2021/10/09 08:27:06;;;;;;;43.08;17.48;;;;;;;;;;5060323;28;20045;-63
2021/10/09 08:40:41;;;;;;;45.38;16.42;;;;;;;;;;5080310;28;20098;-64
2021/10/09 08:43:09;;;;;;;46.13;15.95;;;;;;;;;;5069980;28;20139;-64
2021/10/09 08:45:38;;;;;;;45.33;16.48;;;;;;;;;;5070935;28;20568;-64
2021/10/09 08:48:06;;;;;;;35.85;15.23;;;;;;;;;;5070455;28;20044;-64
2021/10/09 08:50:35;;;;;;;41.65;16.48;;;;;;;;;;5055975;28;20048;-64
2021/10/09 08:53:07;;;;;;;36.85;15.10;;;;;;;;;;5084314;28;20082;-64
2021/10/09 08:55:37;;;;;;;37.88;15.57;;;;;;;;;;5090091;28;20059;-64
2021/10/09 08:58:09;;;;;;;45.42;16.75;;;;;;;;;;5076028;28;20105;-64
2021/10/09 09:00:43;;;;;;;43.10;16.08;;;;;;;;;;5090715;28;20134;-63
2021/10/09 09:03:14;;;;;;;40.05;16.05;;;;;;;;;;5066940;28;20114;-64
2021/10/09 09:05:55;;;;;;;37.70;15.65;;;;;;;;;;5070128;28;20389;-64
2021/10/09 09:25:59;;;;;;;38.92;15.43;;;;;;;;;;5080560;28;20123;-64
2021/10/09 09:34:11;;;;;;;30.92;13.80;;;;;;;;;;5024007;28;20077;-63
2021/10/09 09:39:36;;;;;;;38.08;16.42;;;;;;;;;;5044158;28;20123;-64
2021/10/09 09:42:05;;;;;;;45.10;17.88;;;;;;;;;;5069824;28;20563;-63
2021/10/09 09:44:33;;;;;;;48.50;17.17;;;;;;;;;;5065735;28;20551;-65
2021/10/09 09:47:02;;;;;;;42.40;16.20;;;;;;;;;;5070223;28;20517;-64
2021/10/09 09:49:52;;;;;;;42.65;17.10;;;;;;;;;;5078820;28;20048;-63
2021/10/09 09:52:21;;;;;;;40.65;17.25;;;;;;;;;;5053138;28;20143;-64
2021/10/09 09:54:50;;;;;;;47.25;17.45;;;;;;;;;;5068754;28;20087;-64
2021/10/09 09:57:20;;;;;;;41.13;16.98;;;;;;;;;;5051832;28;20092;-63
2021/10/09 09:59:50;;;;;;;43.70;17.55;;;;;;;;;;5067898;28;20496;-63
2021/10/09 10:02:20;;;;;;;36.70;14.82;;;;;;;;;;5069656;28;20549;-64
2021/10/09 10:04:48;;;;;;;37.78;16.10;;;;;;;;;;5067279;28;20431;-65
2021/10/09 10:07:19;;;;;;;39.08;14.45;;;;;;;;;;5066378;28;20487;-65
2021/10/09 10:09:47;;;;;;;37.85;16.65;;;;;;;;;;5067306;28;20378;-64
2021/10/09 10:12:15;;;;;;;35.22;13.98;;;;;;;;;;5068765;28;20473;-64
2021/10/09 10:14:44;;;;;;;39.13;14.95;;;;;;;;;;5053721;28;20135;-63
2021/10/09 10:17:13;;;;;;;33.13;13.98;;;;;;;;;;5068534;28;20071;-63
2021/10/09 10:20:00;;;;;;;34.30;15.13;;;;;;;;;;5069917;28;20052;-64
2021/10/09 10:22:49;;;;;;;31.48;13.38;;;;;;;;;;5070158;28;20059;-66
2021/10/09 10:25:30;;;;;;;35.25;13.02;;;;;;;;;;5051995;28;20128;-64
2021/10/09 10:27:58;;;;;;;33.33;14.48;;;;;;;;;;5069657;28;20155;-64
2021/10/09 10:30:28;;;;;;;32.50;13.95;;;;;;;;;;5068410;28;20076;-63
2021/10/09 10:33:18;;;;;;;29.95;12.52;;;;;;;;;;5071176;28;20072;-63
2021/10/09 10:35:47;;;;;;;33.50;14.68;;;;;;;;;;5070039;28;20052;-65
2021/10/09 10:38:34;;;;;;;31.83;12.70;;;;;;;;;;5069565;28;20488;-63
2021/10/09 10:41:05;;;;;;;37.40;14.13;;;;;;;;;;5070184;28;20060;-64
2021/10/09 10:43:42;;;;;;;28.80;11.73;;;;;;;;;;5069203;28;20056;-66
2021/10/09 10:46:30;;;;;;;35.83;13.20;;;;;;;;;;5069239;28;20088;-63
2021/10/09 10:49:01;;;;;;;31.55;11.85;;;;;;;;;;5065259;28;20079;-65
2021/10/09 10:51:54;;;;;;;27.92;10.85;;;;;;;;;;5050209;28;20085;-64
2021/10/09 10:54:35;;;;;;;28.55;11.73;;;;;;;;;;5052258;28;20362;-64
2021/10/09 10:57:21;;;;;;;29.95;12.27;;;;;;;;;;5066790;28;20087;-66
2021/10/09 10:59:52;;;;;;;28.42;11.93;;;;;;;;;;5069282;28;20418;-65
2021/10/09 11:02:21;;;;;;;29.13;12.63;;;;;;;;;;5069320;28;20584;-64
2021/10/09 11:04:50;;;;;;;24.92;11.25;;;;;;;;;;5066720;28;20037;-65
2021/10/09 11:07:20;;;;;;;32.35;13.27;;;;;;;;;;5068952;28;20493;-65
2021/10/09 11:09:50;;;;;;;27.58;12.25;;;;;;;;;;5068795;28;20044;-63
2021/10/09 11:12:29;;;;;;;29.65;13.38;;;;;;;;;;5065313;28;20083;-70
2021/10/09 11:15:08;;;;;;;26.60;11.85;;;;;;;;;;5052933;28;20077;-64
2021/10/09 11:17:37;;;;;;;29.67;10.95;;;;;;;;;;5066925;28;20040;-64
2021/10/09 11:20:07;;;;;;;22.38;10.90;;;;;;;;;;5074336;28;20098;-68
2021/10/09 11:22:43;;;;;;;19.95;9.80;;;;;;;;;;5065106;28;20919;-65
2021/10/09 11:25:21;;;;;;;25.70;11.85;;;;;;;;;;5048146;28;20819;-64
2021/10/09 11:27:51;;;;;;;25.17;11.77;;;;;;;;;;5073887;28;20150;-66
2021/10/09 11:30:20;;;;;;;23.52;10.65;;;;;;;;;;5078100;28;20080;-68
2021/10/09 11:32:48;;;;;;;26.67;10.75;;;;;;;;;;5071471;28;20067;-67
2021/10/09 11:35:18;;;;;;;22.77;10.15;;;;;;;;;;5079782;28;20059;-66
2021/10/09 11:37:47;;;;;;;33.17;12.57;;;;;;;;;;5068396;28;20049;-68
2021/10/09 11:40:16;;;;;;;27.92;12.60;;;;;;;;;;5072922;28;20079;-64
2021/10/09 11:42:49;;;;;;;23.05;11.20;;;;;;;;;;5070105;28;20084;-65
2021/10/09 11:45:26;;;;;;;24.63;11.48;;;;;;;;;;5071558;28;20127;-64
2021/10/09 11:53:41;;;;;;;22.15;10.82;;;;;;;;;;5071063;28;20052;-67
2021/10/09 11:56:11;;;;;;;22.27;9.77;;;;;;;;;;5053136;28;20059;-65
2021/10/09 11:58:47;;;;;;;28.77;10.77;;;;;;;;;;5069098;28;20083;-72
2021/10/09 12:01:27;;;;;;;23.45;9.75;;;;;;;;;;5071818;28;20128;-64
2021/10/09 12:03:55;;;;;;;22.30;9.35;;;;;;;;;;5071148;28;20052;-64
2021/10/09 12:06:23;;;;;;;18.52;8.98;;;;;;;;;;5071654;28;20127;-67
2021/10/09 12:08:53;;;;;;;22.40;8.98;;;;;;;;;;5071297;28;20084;-64
2021/10/09 12:11:25;;;;;;;21.08;9.35;;;;;;;;;;5066557;28;20127;-64
2021/10/09 12:13:57;;;;;;;19.30;9.85;;;;;;;;;;5066220;28;20127;-64
2021/10/09 12:16:29;;;;;;;20.30;8.75;;;;;;;;;;5071339;28;20045;-64
2021/10/09 12:18:58;;;;;;;17.20;8.07;;;;;;;;;;5071526;28;20519;-65
2021/10/09 12:21:27;;;;;;;18.73;8.88;;;;;;;;;;5071625;28;20088;-66
2021/10/09 12:23:56;;;;;;;20.02;8.90;;;;;;;;;;5070777;28;20086;-64
2021/10/09 12:26:25;;;;;;;24.60;8.98;;;;;;;;;;5071232;28;20106;-65
2021/10/09 12:29:10;;;;;;;22.35;8.20;;;;;;;;;;5070271;28;20163;-64
2021/10/09 12:31:44;;;;;;;21.40;8.20;;;;;;;;;;5059616;28;20092;-63
2021/10/09 12:34:29;;;;;;;19.20;8.90;;;;;;;;;;5071052;28;20048;-63
2021/10/09 12:37:13;;;;;;;15.32;7.72;;;;;;;;;;5069603;28;20044;-67
2021/10/09 12:39:42;;;;;;;17.30;7.22;;;;;;;;;;5070221;28;20567;-63
2021/10/09 12:42:12;;;;;;;15.48;6.68;;;;;;;;;;5073621;28;20083;-65
2021/10/09 12:44:40;;;;;;;16.33;6.55;;;;;;;;;;5071951;28;20087;-67
2021/10/09 12:47:10;;;;;;;15.55;6.32;;;;;;;;;;5069832;28;20078;-63
2021/10/09 12:49:38;;;;;;;14.15;6.72;;;;;;;;;;5076063;28;20135;-66
2021/10/09 12:52:06;;;;;;;14.15;6.38;;;;;;;;;;5070680;28;20131;-64
2021/10/09 12:54:35;;;;;;;11.93;6.43;;;;;;;;;;5069481;28;20420;-64
2021/10/09 12:57:07;;;;;;;13.88;6.22;;;;;;;;;;5069026;28;20203;-67
2021/10/09 12:59:36;;;;;;;16.15;5.88;;;;;;;;;;5064521;28;20514;-67
2021/10/09 13:02:04;;;;;;;17.70;6.30;;;;;;;;;;5069277;28;20118;-67
2021/10/09 13:04:35;;;;;;;12.45;6.53;;;;;;;;;;5069498;28;20049;-70
2021/10/09 13:07:03;;;;;;;14.68;6.95;;;;;;;;;;5073876;28;20068;-68
2021/10/09 13:09:32;;;;;;;13.68;6.25;;;;;;;;;;5078784;28;20123;-65
2021/10/09 13:12:02;;;;;;;14.02;5.97;;;;;;;;;;5068140;28;20053;-64
2021/10/09 13:14:30;;;;;;;14.23;6.65;;;;;;;;;;5069776;28;20044;-65
2021/10/09 13:16:58;;;;;;;17.13;6.28;;;;;;;;;;5062613;28;20049;-65
2021/10/09 13:19:27;;;;;;;18.70;6.03;;;;;;;;;;5056937;28;20392;-64
2021/10/09 13:21:57;;;;;;;17.75;5.82;;;;;;;;;;5074428;28;20373;-64
2021/10/09 13:24:25;;;;;;;12.18;4.85;;;;;;;;;;5069096;28;21534;-66
2021/10/09 13:26:53;;;;;;;10.48;5.45;;;;;;;;;;5069519;28;20048;-64
2021/10/09 13:29:22;;;;;;;11.90;5.43;;;;;;;;;;5068711;28;20745;-65
2021/10/09 13:31:50;;;;;;;10.65;5.15;;;;;;;;;;5075105;28;20036;-67
2021/10/09 13:34:18;;;;;;;7.78;4.70;;;;;;;;;;5075899;28;20043;-64
2021/10/09 13:36:48;;;;;;;13.18;5.18;;;;;;;;;;5065614;28;20134;-64
2021/10/09 13:39:17;;;;;;;11.07;5.38;;;;;;;;;;5068625;28;20080;-64
2021/10/09 13:41:46;;;;;;;12.07;5.65;;;;;;;;;;5072608;28;20134;-65
2021/10/09 13:44:14;;;;;;;13.70;5.88;;;;;;;;;;5075230;28;20224;-66
2021/10/09 13:46:42;;;;;;;12.75;4.72;;;;;;;;;;5062319;28;20588;-65
2021/10/09 13:49:12;;;;;;;12.32;5.43;;;;;;;;;;5060809;28;20135;-65
2021/10/09 13:51:40;;;;;;;11.88;5.72;;;;;;;;;;5051187;28;20044;-65
2021/10/09 13:54:08;;;;;;;13.85;6.18;;;;;;;;;;5063180;28;20105;-64
2021/10/09 13:56:38;;;;;;;14.68;5.95;;;;;;;;;;5056351;28;20051;-65
2021/10/09 13:59:06;;;;;;;14.23;6.43;;;;;;;;;;5060836;28;20140;-69
2021/10/09 14:01:41;;;;;;;11.05;5.55;;;;;;;;;;5066885;28;20075;-64
2021/10/09 14:04:10;;;;;;;11.52;5.65;;;;;;;;;;5072837;28;20075;-64
2021/10/09 14:06:38;;;;;;;11.70;5.45;;;;;;;;;;5064677;28;20124;-68
2021/10/09 14:09:07;;;;;;;10.55;5.53;;;;;;;;;;5060967;28;20476;-65
2021/10/09 14:11:36;;;;;;;9.63;5.22;;;;;;;;;;5070695;28;20129;-64
2021/10/09 14:14:05;;;;;;;12.35;5.82;;;;;;;;;;5067742;28;20103;-68
2021/10/09 14:16:34;;;;;;;27.80;6.10;;;;;;;;;;5065105;28;20511;-66
2021/10/09 14:19:02;;;;;;;10.73;5.75;;;;;;;;;;5067311;28;20044;-64
2021/10/09 14:21:31;;;;;;;15.27;6.05;;;;;;;;;;5064218;28;20139;-64
2021/10/09 14:24:00;;;;;;;12.32;5.88;;;;;;;;;;5067511;28;20046;-65
2021/10/09 14:26:28;;;;;;;12.43;5.90;;;;;;;;;;5067998;28;20045;-65
2021/10/09 14:28:57;;;;;;;10.20;5.32;;;;;;;;;;5077350;28;20082;-64
2021/10/09 14:31:26;;;;;;;13.65;5.70;;;;;;;;;;5068472;28;20048;-66
2021/10/09 14:33:55;;;;;;;15.60;6.25;;;;;;;;;;5071438;28;20118;-65
2021/10/09 14:36:23;;;;;;;10.40;5.13;;;;;;;;;;5064745;28;20055;-67
2021/10/09 14:38:51;;;;;;;12.48;6.00;;;;;;;;;;5069671;28;20048;-68
2021/10/09 14:41:20;;;;;;;10.85;4.95;;;;;;;;;;5060695;28;20107;-65
2021/10/09 14:43:48;;;;;;;13.75;5.63;;;;;;;;;;5064409;28;20509;-66
2021/10/09 14:49:12;;;;;;;10.23;5.45;;;;;;;;;;5068808;28;20048;-66
2021/10/09 14:51:45;;;;;;;12.07;5.57;;;;;;;;;;5071206;28;20528;-64
2021/10/09 14:54:41;;;;;;;15.40;5.28;;;;;;;;;;5069544;28;20072;-66
2021/10/09 15:16:47;;;;;;;11.73;5.85;;;;;;;;;;5055899;28;20055;-65
2021/10/09 15:19:15;;;;;;;14.00;5.30;;;;;;;;;;5058776;28;20832;-65
2021/10/09 15:21:49;;;;;;;10.07;5.50;;;;;;;;;;5062181;28;20133;-65
2021/10/09 15:24:17;;;;;;;13.45;5.13;;;;;;;;;;5062225;28;20155;-66
2021/10/09 15:26:45;;;;;;;10.45;5.07;;;;;;;;;;5058600;28;20577;-68
2021/10/09 15:29:14;;;;;;;12.55;5.47;;;;;;;;;;5073058;28;20079;-65
2021/10/09 15:31:42;;;;;;;11.35;5.15;;;;;;;;;;5065467;28;20454;-68
2021/10/09 15:34:11;;;;;;;14.20;5.55;;;;;;;;;;5078957;28;20054;-72
2021/10/09 15:36:40;;;;;;;11.82;4.90;;;;;;;;;;5064078;28;20040;-70
2021/10/09 15:39:09;;;;;;;11.00;5.50;;;;;;;;;;5059731;28;20444;-69
2021/10/09 15:41:38;;;;;;;14.48;5.03;;;;;;;;;;5050451;28;20056;-66
2021/10/09 15:44:07;;;;;;;13.18;4.47;;;;;;;;;;5065794;28;20053;-69
2021/10/09 15:46:36;;;;;;;9.90;4.38;;;;;;;;;;5056354;28;20044;-68
2021/10/09 15:49:05;;;;;;;9.57;4.85;;;;;;;;;;5056817;28;20052;-71
2021/10/09 15:51:34;;;;;;;11.20;5.10;;;;;;;;;;5086444;28;20047;-69
2021/10/09 15:54:02;;;;;;;11.27;5.00;;;;;;;;;;5057841;28;20084;-65
2021/10/09 15:56:32;;;;;;;10.43;4.70;;;;;;;;;;5070403;28;20098;-72
2021/10/09 15:59:01;;;;;;;10.13;4.30;;;;;;;;;;5064202;28;20056;-65
2021/10/09 16:01:29;;;;;;;8.93;4.35;;;;;;;;;;5071660;28;20257;-66
2021/10/09 16:04:01;;;;;;;11.27;5.03;;;;;;;;;;5061517;28;20385;-67
2021/10/09 16:06:29;;;;;;;14.77;5.57;;;;;;;;;;5060407;28;20250;-68
2021/10/09 16:08:58;;;;;;;12.25;5.28;;;;;;;;;;5067234;28;20118;-69
2021/10/09 16:11:30;;;;;;;10.23;4.97;;;;;;;;;;5067786;28;20106;-69
2021/10/09 16:14:06;;;;;;;11.00;4.72;;;;;;;;;;5068540;28;20067;-68
2021/10/09 16:16:36;;;;;;;11.75;4.53;;;;;;;;;;5068596;28;20070;-68
2021/10/09 16:19:04;;;;;;;11.65;5.65;;;;;;;;;;5063999;28;20061;-69
2021/10/09 16:21:33;;;;;;;11.77;4.70;;;;;;;;;;5064540;28;20075;-68
2021/10/09 16:24:01;;;;;;;7.90;4.72;;;;;;;;;;5062012;28;20563;-65
2021/10/09 16:26:30;;;;;;;11.45;5.50;;;;;;;;;;5051956;28;20057;-65
2021/10/09 16:28:58;;;;;;;10.40;5.07;;;;;;;;;;5065893;28;20496;-66
2021/10/09 16:31:33;;;;;;;10.55;5.35;;;;;;;;;;5068141;28;20127;-65
2021/10/09 16:34:05;;;;;;;11.25;5.07;;;;;;;;;;5066478;28;20122;-68
2021/10/09 16:36:37;;;;;;;13.00;5.38;;;;;;;;;;5056085;28;20049;-67
2021/10/09 16:39:06;;;;;;;10.07;4.20;;;;;;;;;;5063799;28;20552;-69
2021/10/09 16:41:34;;;;;;;10.98;4.30;;;;;;;;;;5059913;28;20086;-68
2021/10/09 16:44:03;;;;;;;15.05;5.07;;;;;;;;;;5068645;28;20060;-67
2021/10/09 16:46:38;;;;;;;7.20;4.57;;;;;;;;;;5076155;28;20045;-70
2021/10/09 16:49:06;;;;;;;10.55;4.90;;;;;;;;;;5063402;28;20041;-65